sensor_id;sensor_type;location;lat;lon;timestamp;pressure;altitude;pressure_sealevel;temperature;humidity
70555;BME280;58104;52.744;15.242;2022-10-31T00:01:10;101154.17;;;18.59;56.56
70555;BME280;58104;52.744;15.242;2022-10-31T00:03:31;101155.48;;;18.55;56.76
70555;BME280;58104;52.744;15.242;2022-10-31T00:05:57;101156.40;;;18.65;56.00
70555;BME280;58104;52.744;15.242;2022-10-31T00:08:22;101157.63;;;18.67;55.13
70555;BME280;58104;52.744;15.242;2022-10-31T00:10:48;101161.51;;;18.65;56.38
70555;BME280;58104;52.744;15.242;2022-10-31T00:13:14;101156.53;;;18.61;56.91
70555;BME280;58104;52.744;15.242;2022-10-31T00:15:39;101159.10;;;18.64;57.17
70555;BME280;58104;52.744;15.242;2022-10-31T00:18:05;101159.59;;;18.75;57.17
70555;BME280;58104;52.744;15.242;2022-10-31T00:20:30;101159.97;;;18.70;55.74
70555;BME280;58104;52.744;15.242;2022-10-31T00:22:57;101164.45;;;18.62;55.28
70555;BME280;58104;52.744;15.242;2022-10-31T00:25:20;101167.98;;;18.60;55.87
70555;BME280;58104;52.744;15.242;2022-10-31T00:27:46;101167.79;;;18.44;54.70
70555;BME280;58104;52.744;15.242;2022-10-31T00:30:11;101172.77;;;18.22;54.94
70555;BME280;58104;52.744;15.242;2022-10-31T00:32:36;101169.34;;;18.28;56.21
70555;BME280;58104;52.744;15.242;2022-10-31T00:35:01;101169.50;;;18.27;56.27
70555;BME280;58104;52.744;15.242;2022-10-31T00:37:26;101168.94;;;18.29;55.60
70555;BME280;58104;52.744;15.242;2022-10-31T00:39:52;101168.24;;;18.26;55.49
70555;BME280;58104;52.744;15.242;2022-10-31T00:42:17;101165.24;;;18.20;55.19
70555;BME280;58104;52.744;15.242;2022-10-31T00:44:42;101165.46;;;18.15;54.90
70555;BME280;58104;52.744;15.242;2022-10-31T00:47:08;101170.09;;;18.09;54.45
70555;BME280;58104;52.744;15.242;2022-10-31T00:49:33;101170.73;;;18.12;55.00
70555;BME280;58104;52.744;15.242;2022-10-31T00:51:59;101167.33;;;18.10;54.65
70555;BME280;58104;52.744;15.242;2022-10-31T00:54:24;101166.00;;;18.21;55.74
70555;BME280;58104;52.744;15.242;2022-10-31T00:56:50;101165.87;;;18.29;55.70
70555;BME280;58104;52.744;15.242;2022-10-31T00:59:15;101167.24;;;18.16;55.52
70555;BME280;58104;52.744;15.242;2022-10-31T01:01:40;101166.09;;;18.08;54.76
70555;BME280;58104;52.744;15.242;2022-10-31T01:04:06;101168.05;;;17.96;54.36
70555;BME280;58104;52.744;15.242;2022-10-31T01:06:31;101166.82;;;17.95;55.37
70555;BME280;58104;52.744;15.242;2022-10-31T01:08:57;101166.70;;;17.96;55.08
70555;BME280;58104;52.744;15.242;2022-10-31T01:11:23;101166.01;;;17.96;54.90
70555;BME280;58104;52.744;15.242;2022-10-31T01:13:50;101170.17;;;17.93;55.41
70555;BME280;58104;52.744;15.242;2022-10-31T01:16:14;101171.47;;;17.88;54.78
70555;BME280;58104;52.744;15.242;2022-10-31T01:18:38;101169.52;;;17.82;54.48
70555;BME280;58104;52.744;15.242;2022-10-31T01:21:05;101168.66;;;17.78;54.32
70555;BME280;58104;52.744;15.242;2022-10-31T01:23:29;101165.38;;;17.72;55.38
70555;BME280;58104;52.744;15.242;2022-10-31T01:25:59;101163.66;;;17.76;55.12
70555;BME280;58104;52.744;15.242;2022-10-31T01:28:19;101158.63;;;17.73;55.24
70555;BME280;58104;52.744;15.242;2022-10-31T01:30:44;101158.69;;;17.74;55.49
70555;BME280;58104;52.744;15.242;2022-10-31T01:33:10;101161.02;;;17.76;55.14
70555;BME280;58104;52.744;15.242;2022-10-31T01:35:35;101157.60;;;17.73;54.80
70555;BME280;58104;52.744;15.242;2022-10-31T01:38:00;101160.59;;;17.72;54.49
70555;BME280;58104;52.744;15.242;2022-10-31T01:40:29;101161.55;;;17.68;53.71
70555;BME280;58104;52.744;15.242;2022-10-31T01:42:51;101160.01;;;17.53;54.36
70555;BME280;58104;52.744;15.242;2022-10-31T01:45:17;101159.98;;;17.45;54.32
70555;BME280;58104;52.744;15.242;2022-10-31T01:47:45;101161.95;;;17.37;54.50
70555;BME280;58104;52.744;15.242;2022-10-31T01:50:19;101160.94;;;17.31;53.62
70555;BME280;58104;52.744;15.242;2022-10-31T01:52:36;101162.40;;;17.39;54.38
70555;BME280;58104;52.744;15.242;2022-10-31T01:55:02;101160.04;;;17.34;54.54
70555;BME280;58104;52.744;15.242;2022-10-31T01:57:25;101158.26;;;17.34;54.62
70555;BME280;58104;52.744;15.242;2022-10-31T01:59:54;101155.61;;;17.43;54.19
70555;BME280;58104;52.744;15.242;2022-10-31T02:02:17;101153.99;;;17.34;54.47
70555;BME280;58104;52.744;15.242;2022-10-31T02:04:41;101151.73;;;17.32;54.52
70555;BME280;58104;52.744;15.242;2022-10-31T02:07:10;101150.57;;;17.37;54.85
70555;BME280;58104;52.744;15.242;2022-10-31T02:09:31;101151.96;;;17.36;54.89
70555;BME280;58104;52.744;15.242;2022-10-31T02:11:58;101156.66;;;17.39;54.56
70555;BME280;58104;52.744;15.242;2022-10-31T02:14:22;101160.73;;;17.31;54.15
70555;BME280;58104;52.744;15.242;2022-10-31T02:16:48;101162.30;;;17.37;54.10
70555;BME280;58104;52.744;15.242;2022-10-31T02:19:19;101158.98;;;17.20;54.71
70555;BME280;58104;52.744;15.242;2022-10-31T02:21:44;101159.26;;;17.27;54.18
70555;BME280;58104;52.744;15.242;2022-10-31T02:29:05;101163.40;;;17.17;54.68
70555;BME280;58104;52.744;15.242;2022-10-31T02:31:27;101166.11;;;17.26;54.30
70555;BME280;58104;52.744;15.242;2022-10-31T02:33:51;101164.67;;;17.20;54.96
70555;BME280;58104;52.744;15.242;2022-10-31T02:36:16;101161.64;;;17.21;54.18
70555;BME280;58104;52.744;15.242;2022-10-31T02:38:45;101163.95;;;17.12;54.10
70555;BME280;58104;52.744;15.242;2022-10-31T02:41:09;101165.67;;;17.18;54.59
70555;BME280;58104;52.744;15.242;2022-10-31T02:43:33;101165.37;;;17.19;54.19
70555;BME280;58104;52.744;15.242;2022-10-31T02:45:58;101169.70;;;17.20;55.05
70555;BME280;58104;52.744;15.242;2022-10-31T02:48:22;101169.81;;;17.28;54.82
70555;BME280;58104;52.744;15.242;2022-10-31T02:50:50;101174.73;;;17.38;54.10
70555;BME280;58104;52.744;15.242;2022-10-31T02:53:14;101179.15;;;17.20;54.21
70555;BME280;58104;52.744;15.242;2022-10-31T02:55:44;101182.56;;;17.19;54.85
70555;BME280;58104;52.744;15.242;2022-10-31T02:58:04;101186.27;;;17.09;53.90
70555;BME280;58104;52.744;15.242;2022-10-31T03:00:27;101186.95;;;17.07;53.53
70555;BME280;58104;52.744;15.242;2022-10-31T03:03:00;101188.36;;;16.90;53.94
70555;BME280;58104;52.744;15.242;2022-10-31T03:05:27;101185.74;;;16.96;54.44
70555;BME280;58104;52.744;15.242;2022-10-31T03:07:47;101185.07;;;16.98;54.16
70555;BME280;58104;52.744;15.242;2022-10-31T03:10:15;101188.08;;;16.95;53.83
70555;BME280;58104;52.744;15.242;2022-10-31T03:12:38;101187.80;;;16.89;53.74
70555;BME280;58104;52.744;15.242;2022-10-31T03:15:04;101187.32;;;16.91;53.97
70555;BME280;58104;52.744;15.242;2022-10-31T03:17:28;101187.45;;;16.91;53.93
70555;BME280;58104;52.744;15.242;2022-10-31T03:19:50;101185.24;;;16.86;53.80
70555;BME280;58104;52.744;15.242;2022-10-31T03:22:17;101190.32;;;16.88;53.79
70555;BME280;58104;52.744;15.242;2022-10-31T03:24:40;101186.74;;;16.90;53.80
70555;BME280;58104;52.744;15.242;2022-10-31T03:27:08;101188.21;;;16.84;53.70
70555;BME280;58104;52.744;15.242;2022-10-31T03:29:33;101189.83;;;16.89;54.07
70555;BME280;58104;52.744;15.242;2022-10-31T03:32:00;101189.70;;;16.96;54.89
70555;BME280;58104;52.744;15.242;2022-10-31T03:34:22;101190.53;;;17.05;54.27
70555;BME280;58104;52.744;15.242;2022-10-31T03:36:50;101196.27;;;17.09;53.38
70555;BME280;58104;52.744;15.242;2022-10-31T03:39:14;101199.27;;;17.16;53.79
70555;BME280;58104;52.744;15.242;2022-10-31T03:41:46;101199.69;;;17.06;54.02
70555;BME280;58104;52.744;15.242;2022-10-31T03:44:08;101197.44;;;17.12;54.21
70555;BME280;58104;52.744;15.242;2022-10-31T03:46:29;101198.90;;;17.13;54.19
70555;BME280;58104;52.744;15.242;2022-10-31T03:48:55;101199.69;;;17.11;53.92
70555;BME280;58104;52.744;15.242;2022-10-31T03:51:23;101199.85;;;17.03;53.81
70555;BME280;58104;52.744;15.242;2022-10-31T03:53:52;101200.32;;;16.90;53.86
70555;BME280;58104;52.744;15.242;2022-10-31T03:56:15;101198.41;;;16.84;54.35
70555;BME280;58104;52.744;15.242;2022-10-31T03:58:41;101203.43;;;16.90;54.40
70555;BME280;58104;52.744;15.242;2022-10-31T04:01:03;101203.20;;;16.90;53.94
70555;BME280;58104;52.744;15.242;2022-10-31T04:03:29;101206.27;;;16.93;54.21
70555;BME280;58104;52.744;15.242;2022-10-31T04:05:55;101209.58;;;16.94;53.84
70555;BME280;58104;52.744;15.242;2022-10-31T04:08:20;101209.77;;;16.87;53.10
70555;BME280;58104;52.744;15.242;2022-10-31T04:10:45;101204.18;;;16.92;54.20
70555;BME280;58104;52.744;15.242;2022-10-31T04:13:13;101196.64;;;17.04;52.38
70555;BME280;58104;52.744;15.242;2022-10-31T04:15:35;101200.41;;;16.94;53.76
70555;BME280;58104;52.744;15.242;2022-10-31T04:18:00;101205.53;;;17.04;54.11
70555;BME280;58104;52.744;15.242;2022-10-31T04:20:31;101196.66;;;16.87;53.59
70555;BME280;58104;52.744;15.242;2022-10-31T04:22:50;101194.44;;;16.79;54.32
70555;BME280;58104;52.744;15.242;2022-10-31T04:25:15;101201.50;;;16.92;53.87
70555;BME280;58104;52.744;15.242;2022-10-31T04:27:40;101199.59;;;16.98;53.41
70555;BME280;58104;52.744;15.242;2022-10-31T04:30:06;101200.16;;;16.91;53.11
70555;BME280;58104;52.744;15.242;2022-10-31T04:32:31;101197.49;;;16.80;53.58
70555;BME280;58104;52.744;15.242;2022-10-31T04:34:56;101201.65;;;16.86;53.32
70555;BME280;58104;52.744;15.242;2022-10-31T04:37:22;101203.27;;;16.88;53.55
70555;BME280;58104;52.744;15.242;2022-10-31T04:39:47;101207.56;;;16.68;54.43
70555;BME280;58104;52.744;15.242;2022-10-31T04:42:13;101204.30;;;16.73;53.45
70555;BME280;58104;52.744;15.242;2022-10-31T04:44:39;101203.24;;;16.55;53.07
70555;BME280;58104;52.744;15.242;2022-10-31T04:47:04;101210.23;;;16.56;53.97
70555;BME280;58104;52.744;15.242;2022-10-31T04:49:29;101209.21;;;16.52;53.42
70555;BME280;58104;52.744;15.242;2022-10-31T04:51:55;101208.90;;;16.54;54.01
70555;BME280;58104;52.744;15.242;2022-10-31T04:54:20;101209.55;;;16.56;54.20
70555;BME280;58104;52.744;15.242;2022-10-31T04:56:46;101205.24;;;16.46;53.42
70555;BME280;58104;52.744;15.242;2022-10-31T04:59:11;101213.80;;;16.53;53.11
70555;BME280;58104;52.744;15.242;2022-10-31T05:01:37;101211.82;;;16.47;53.17
70555;BME280;58104;52.744;15.242;2022-10-31T05:04:03;101217.89;;;16.42;53.78
70555;BME280;58104;52.744;15.242;2022-10-31T05:06:28;101221.93;;;16.46;53.00
70555;BME280;58104;52.744;15.242;2022-10-31T05:08:53;101218.87;;;16.42;54.12
70555;BME280;58104;52.744;15.242;2022-10-31T05:11:19;101219.93;;;16.59;53.60
70555;BME280;58104;52.744;15.242;2022-10-31T05:13:45;101219.69;;;16.67;54.22
70555;BME280;58104;52.744;15.242;2022-10-31T05:16:11;101220.21;;;16.66;54.25
70555;BME280;58104;52.744;15.242;2022-10-31T05:18:36;101217.82;;;16.66;53.39
70555;BME280;58104;52.744;15.242;2022-10-31T05:21:01;101220.07;;;16.69;53.63
70555;BME280;58104;52.744;15.242;2022-10-31T05:23:27;101219.26;;;16.70;52.88
70555;BME280;58104;52.744;15.242;2022-10-31T05:25:52;101224.97;;;16.68;54.38
70555;BME280;58104;52.744;15.242;2022-10-31T05:28:17;101227.59;;;16.67;53.76
70555;BME280;58104;52.744;15.242;2022-10-31T05:30:42;101228.00;;;16.61;54.16
70555;BME280;58104;52.744;15.242;2022-10-31T05:33:08;101233.47;;;16.53;54.70
70555;BME280;58104;52.744;15.242;2022-10-31T05:35:34;101228.47;;;16.66;54.20
70555;BME280;58104;52.744;15.242;2022-10-31T05:38:00;101231.36;;;16.48;54.89
70555;BME280;58104;52.744;15.242;2022-10-31T05:40:26;101230.05;;;16.64;53.80
70555;BME280;58104;52.744;15.242;2022-10-31T05:42:51;101228.00;;;16.81;54.90
70555;BME280;58104;52.744;15.242;2022-10-31T05:45:17;101230.75;;;17.07;53.98
70555;BME280;58104;52.744;15.242;2022-10-31T05:47:41;101227.53;;;16.68;54.29
70555;BME280;58104;52.744;15.242;2022-10-31T05:50:08;101223.71;;;16.75;54.76
70555;BME280;58104;52.744;15.242;2022-10-31T05:52:32;101229.91;;;16.50;54.01
70555;BME280;58104;52.744;15.242;2022-10-31T05:54:58;101232.24;;;16.90;53.80
70555;BME280;58104;52.744;15.242;2022-10-31T05:57:23;101231.86;;;16.71;54.08
70555;BME280;58104;52.744;15.242;2022-10-31T05:59:49;101235.28;;;16.53;55.33
70555;BME280;58104;52.744;15.242;2022-10-31T06:02:14;101236.43;;;16.64;54.85
70555;BME280;58104;52.744;15.242;2022-10-31T06:04:39;101237.44;;;16.87;53.51
70555;BME280;58104;52.744;15.242;2022-10-31T06:07:05;101241.86;;;16.88;54.48
70555;BME280;58104;52.744;15.242;2022-10-31T06:09:30;101247.35;;;16.61;55.12
70555;BME280;58104;52.744;15.242;2022-10-31T06:11:56;101244.69;;;16.79;54.75
70555;BME280;58104;52.744;15.242;2022-10-31T06:14:21;101246.40;;;17.01;54.62
70555;BME280;58104;52.744;15.242;2022-10-31T06:16:47;101248.09;;;16.84;55.03
70555;BME280;58104;52.744;15.242;2022-10-31T06:19:13;101250.39;;;17.13;54.93
70555;BME280;58104;52.744;15.242;2022-10-31T06:21:39;101250.66;;;17.03;54.48
70555;BME280;58104;52.744;15.242;2022-10-31T06:24:05;101256.88;;;17.13;54.46
70555;BME280;58104;52.744;15.242;2022-10-31T06:26:30;101266.63;;;17.19;54.20
70555;BME280;58104;52.744;15.242;2022-10-31T06:28:55;101276.92;;;16.79;54.13
70555;BME280;58104;52.744;15.242;2022-10-31T06:31:21;101279.76;;;16.99;54.00
70555;BME280;58104;52.744;15.242;2022-10-31T06:33:47;101286.56;;;18.18;54.54
70555;BME280;58104;52.744;15.242;2022-10-31T06:36:12;101291.55;;;18.70;52.69
70555;BME280;58104;52.744;15.242;2022-10-31T06:38:37;101295.07;;;19.06;51.88
70555;BME280;58104;52.744;15.242;2022-10-31T06:41:03;101298.87;;;19.41;50.68
70555;BME280;58104;52.744;15.242;2022-10-31T06:43:28;101302.55;;;19.61;50.72
70555;BME280;58104;52.744;15.242;2022-10-31T06:45:53;101302.52;;;19.80;50.45
70555;BME280;58104;52.744;15.242;2022-10-31T06:48:19;101305.56;;;19.88;50.51
70555;BME280;58104;52.744;15.242;2022-10-31T06:50:44;101299.07;;;20.04;50.15
70555;BME280;58104;52.744;15.242;2022-10-31T06:53:10;101298.14;;;19.71;50.88
70555;BME280;58104;52.744;15.242;2022-10-31T06:55:36;101294.84;;;19.92;50.37
70555;BME280;58104;52.744;15.242;2022-10-31T06:58:01;101296.90;;;19.84;50.59
70555;BME280;58104;52.744;15.242;2022-10-31T07:00:28;101302.33;;;19.85;50.65
70555;BME280;58104;52.744;15.242;2022-10-31T07:02:54;101308.28;;;19.99;49.73
70555;BME280;58104;52.744;15.242;2022-10-31T07:05:17;101307.72;;;20.04;50.15
70555;BME280;58104;52.744;15.242;2022-10-31T07:07:42;101311.38;;;20.14;49.97
70555;BME280;58104;52.744;15.242;2022-10-31T07:10:07;101318.36;;;20.22;49.68
70555;BME280;58104;52.744;15.242;2022-10-31T07:12:32;101321.10;;;19.68;50.10
70555;BME280;58104;52.744;15.242;2022-10-31T07:14:58;101324.33;;;19.14;50.88
70555;BME280;58104;52.744;15.242;2022-10-31T07:17:23;101328.21;;;18.94;51.36
70555;BME280;58104;52.744;15.242;2022-10-31T07:19:49;101328.54;;;18.88;52.30
70555;BME280;58104;52.744;15.242;2022-10-31T07:22:14;101328.41;;;18.74;52.04
70555;BME280;58104;52.744;15.242;2022-10-31T07:24:40;101333.97;;;18.85;51.45
70555;BME280;58104;52.744;15.242;2022-10-31T07:27:05;101339.39;;;18.76;51.33
70555;BME280;58104;52.744;15.242;2022-10-31T07:29:30;101341.96;;;18.90;51.56
70555;BME280;58104;52.744;15.242;2022-10-31T07:31:56;101344.06;;;19.08;51.05
70555;BME280;58104;52.744;15.242;2022-10-31T07:34:21;101343.64;;;19.05;51.39
70555;BME280;58104;52.744;15.242;2022-10-31T07:36:46;101340.32;;;19.10;51.03
70555;BME280;58104;52.744;15.242;2022-10-31T07:39:12;101340.19;;;19.18;50.49
70555;BME280;58104;52.744;15.242;2022-10-31T07:41:37;101344.63;;;19.15;49.97
70555;BME280;58104;52.744;15.242;2022-10-31T07:44:03;101346.70;;;19.17;49.98
70555;BME280;58104;52.744;15.242;2022-10-31T07:46:29;101343.72;;;19.18;50.25
70555;BME280;58104;52.744;15.242;2022-10-31T07:48:54;101344.55;;;19.13;50.38
70555;BME280;58104;52.744;15.242;2022-10-31T07:51:19;101348.58;;;19.29;50.11
70555;BME280;58104;52.744;15.242;2022-10-31T07:53:44;101351.04;;;19.24;49.89
70555;BME280;58104;52.744;15.242;2022-10-31T07:56:10;101350.66;;;19.21;49.95
70555;BME280;58104;52.744;15.242;2022-10-31T07:58:35;101356.01;;;19.17;50.06
70555;BME280;58104;52.744;15.242;2022-10-31T08:01:01;101359.56;;;19.88;48.90
70555;BME280;58104;52.744;15.242;2022-10-31T08:03:26;101357.57;;;20.24;48.14
70555;BME280;58104;52.744;15.242;2022-10-31T08:05:51;101360.76;;;20.77;47.32
70555;BME280;58104;52.744;15.242;2022-10-31T08:08:17;101361.33;;;20.58;47.56
70555;BME280;58104;52.744;15.242;2022-10-31T08:10:42;101359.39;;;20.49;47.50
70555;BME280;58104;52.744;15.242;2022-10-31T08:13:09;101364.12;;;20.82;46.24
70555;BME280;58104;52.744;15.242;2022-10-31T08:15:34;101366.63;;;21.11;46.16
70555;BME280;58104;52.744;15.242;2022-10-31T08:17:59;101364.31;;;21.26;45.63
70555;BME280;58104;52.744;15.242;2022-10-31T08:20:24;101362.83;;;21.32;46.09
70555;BME280;58104;52.744;15.242;2022-10-31T08:22:54;101363.52;;;21.12;46.73
70555;BME280;58104;52.744;15.242;2022-10-31T08:25:15;101362.86;;;21.28;46.64
70555;BME280;58104;52.744;15.242;2022-10-31T08:27:40;101363.78;;;21.32;46.67
70555;BME280;58104;52.744;15.242;2022-10-31T08:30:06;101364.00;;;21.47;46.50
70555;BME280;58104;52.744;15.242;2022-10-31T08:32:33;101358.15;;;20.27;48.78
70555;BME280;58104;52.744;15.242;2022-10-31T08:34:56;101359.58;;;20.21;49.54
70555;BME280;58104;52.744;15.242;2022-10-31T08:37:22;101355.78;;;20.51;48.70
70555;BME280;58104;52.744;15.242;2022-10-31T08:39:47;101360.08;;;20.99;47.64
70555;BME280;58104;52.744;15.242;2022-10-31T08:42:12;101363.46;;;21.14;47.80
70555;BME280;58104;52.744;15.242;2022-10-31T08:44:38;101365.36;;;21.41;47.18
70555;BME280;58104;52.744;15.242;2022-10-31T08:47:03;101367.18;;;21.37;47.46
70555;BME280;58104;52.744;15.242;2022-10-31T08:49:28;101368.10;;;21.62;46.97
70555;BME280;58104;52.744;15.242;2022-10-31T08:51:54;101366.49;;;21.58;46.81
70555;BME280;58104;52.744;15.242;2022-10-31T08:54:19;101364.03;;;21.68;47.14
70555;BME280;58104;52.744;15.242;2022-10-31T08:56:45;101358.93;;;21.70;46.75
70555;BME280;58104;52.744;15.242;2022-10-31T08:59:10;101363.38;;;21.58;46.67
70555;BME280;58104;52.744;15.242;2022-10-31T09:01:36;101364.96;;;21.45;47.47
70555;BME280;58104;52.744;15.242;2022-10-31T09:04:01;101365.29;;;21.45;47.44
70555;BME280;58104;52.744;15.242;2022-10-31T09:06:27;101367.69;;;21.38;46.87
70555;BME280;58104;52.744;15.242;2022-10-31T09:08:53;101368.94;;;21.42;47.15
70555;BME280;58104;52.744;15.242;2022-10-31T09:11:18;101371.71;;;21.42;47.21
70555;BME280;58104;52.744;15.242;2022-10-31T09:13:44;101374.59;;;21.44;47.80
70555;BME280;58104;52.744;15.242;2022-10-31T09:16:10;101375.62;;;21.51;47.50
70555;BME280;58104;52.744;15.242;2022-10-31T09:18:35;101374.14;;;21.61;47.60
70555;BME280;58104;52.744;15.242;2022-10-31T09:21:01;101374.66;;;21.42;47.64
70555;BME280;58104;52.744;15.242;2022-10-31T09:23:26;101378.91;;;21.28;47.80
70555;BME280;58104;52.744;15.242;2022-10-31T09:25:53;101379.63;;;21.32;47.47
70555;BME280;58104;52.744;15.242;2022-10-31T09:28:19;101381.43;;;21.56;47.49
70555;BME280;58104;52.744;15.242;2022-10-31T09:30:45;101379.89;;;21.64;47.43
70555;BME280;58104;52.744;15.242;2022-10-31T09:33:10;101382.70;;;21.60;47.70
70555;BME280;58104;52.744;15.242;2022-10-31T09:35:33;101382.20;;;21.74;47.58
70555;BME280;58104;52.744;15.242;2022-10-31T09:37:59;101389.05;;;21.69;47.70
70555;BME280;58104;52.744;15.242;2022-10-31T09:40:27;101391.99;;;21.79;47.28
70555;BME280;58104;52.744;15.242;2022-10-31T09:42:57;101399.24;;;21.68;47.65
70555;BME280;58104;52.744;15.242;2022-10-31T09:45:20;101399.73;;;21.71;47.77
70555;BME280;58104;52.744;15.242;2022-10-31T09:47:50;101400.47;;;21.79;47.65
70555;BME280;58104;52.744;15.242;2022-10-31T09:50:15;101396.54;;;21.77;47.81
70555;BME280;58104;52.744;15.242;2022-10-31T09:52:33;101399.78;;;21.75;47.83
70555;BME280;58104;52.744;15.242;2022-10-31T09:54:58;101400.68;;;21.82;47.76
70555;BME280;58104;52.744;15.242;2022-10-31T09:57:26;101396.96;;;21.91;47.80
70555;BME280;58104;52.744;15.242;2022-10-31T09:59:48;101395.94;;;21.91;47.79
70555;BME280;58104;52.744;15.242;2022-10-31T10:02:17;101398.08;;;22.02;47.82
70555;BME280;58104;52.744;15.242;2022-10-31T10:04:42;101395.99;;;21.94;47.69
70555;BME280;58104;52.744;15.242;2022-10-31T10:07:11;101399.44;;;21.91;47.89
70555;BME280;58104;52.744;15.242;2022-10-31T10:09:29;101397.93;;;21.99;47.93
70555;BME280;58104;52.744;15.242;2022-10-31T10:12:02;101399.22;;;22.08;47.86
70555;BME280;58104;52.744;15.242;2022-10-31T10:14:29;101397.38;;;22.13;47.99
70555;BME280;58104;52.744;15.242;2022-10-31T10:16:54;101397.74;;;22.15;47.83
70555;BME280;58104;52.744;15.242;2022-10-31T10:19:25;101395.66;;;22.27;47.69
70555;BME280;58104;52.744;15.242;2022-10-31T10:21:41;101392.80;;;22.16;47.59
70555;BME280;58104;52.744;15.242;2022-10-31T10:24:09;101393.31;;;22.23;47.62
70555;BME280;58104;52.744;15.242;2022-10-31T10:26:30;101395.66;;;21.32;49.08
70555;BME280;58104;52.744;15.242;2022-10-31T10:28:56;101395.44;;;21.08;49.53
70555;BME280;58104;52.744;15.242;2022-10-31T10:31:18;101393.05;;;20.60;49.50
70555;BME280;58104;52.744;15.242;2022-10-31T10:33:44;101394.11;;;20.26;49.65
70555;BME280;58104;52.744;15.242;2022-10-31T10:36:10;101394.29;;;20.24;49.93
70555;BME280;58104;52.744;15.242;2022-10-31T10:38:34;101389.81;;;20.33;49.84
70555;BME280;58104;52.744;15.242;2022-10-31T10:40:58;101388.50;;;20.51;49.46
70555;BME280;58104;52.744;15.242;2022-10-31T10:43:24;101384.85;;;20.65;49.18
70555;BME280;58104;52.744;15.242;2022-10-31T10:45:53;101385.22;;;20.58;49.00
70555;BME280;58104;52.744;15.242;2022-10-31T10:48:16;101383.61;;;20.37;49.06
70555;BME280;58104;52.744;15.242;2022-10-31T10:50:42;101385.61;;;20.33;49.52
70555;BME280;58104;52.744;15.242;2022-10-31T10:53:08;101385.60;;;20.57;49.31
70555;BME280;58104;52.744;15.242;2022-10-31T10:55:34;101386.19;;;20.64;49.20
70555;BME280;58104;52.744;15.242;2022-10-31T10:57:56;101393.54;;;20.82;48.96
70555;BME280;58104;52.744;15.242;2022-10-31T11:00:21;101391.11;;;20.55;49.27
70555;BME280;58104;52.744;15.242;2022-10-31T11:02:43;101385.18;;;20.09;50.27
70555;BME280;58104;52.744;15.242;2022-10-31T11:05:19;101388.18;;;20.51;50.05
70555;BME280;58104;52.744;15.242;2022-10-31T11:07:39;101388.07;;;20.79;49.85
70555;BME280;58104;52.744;15.242;2022-10-31T11:10:03;101389.46;;;20.81;49.88
70555;BME280;58104;52.744;15.242;2022-10-31T11:12:29;101389.95;;;20.82;49.68
70555;BME280;58104;52.744;15.242;2022-10-31T11:14:52;101391.16;;;21.14;48.98
70555;BME280;58104;52.744;15.242;2022-10-31T11:17:27;101389.36;;;21.40;48.30
70555;BME280;58104;52.744;15.242;2022-10-31T11:19:40;101383.38;;;21.65;47.96
70555;BME280;58104;52.744;15.242;2022-10-31T11:22:06;101379.31;;;21.84;47.70
70555;BME280;58104;52.744;15.242;2022-10-31T11:24:37;101375.64;;;21.90;47.71
70555;BME280;58104;52.744;15.242;2022-10-31T11:27:05;101373.47;;;22.15;47.19
70555;BME280;58104;52.744;15.242;2022-10-31T11:29:23;101369.38;;;22.37;46.48
70555;BME280;58104;52.744;15.242;2022-10-31T11:31:51;101367.55;;;22.90;45.52
70555;BME280;58104;52.744;15.242;2022-10-31T11:34:17;101368.67;;;23.02;45.35
70555;BME280;58104;52.744;15.242;2022-10-31T11:36:39;101373.66;;;23.35;44.49
70555;BME280;58104;52.744;15.242;2022-10-31T11:39:05;101365.82;;;23.49;43.59
70555;BME280;58104;52.744;15.242;2022-10-31T11:41:32;101366.13;;;23.43;43.59
70555;BME280;58104;52.744;15.242;2022-10-31T11:43:59;101361.25;;;23.24;44.16
70555;BME280;58104;52.744;15.242;2022-10-31T11:46:27;101360.85;;;23.27;43.97
70555;BME280;58104;52.744;15.242;2022-10-31T11:48:47;101359.81;;;23.34;43.61
70555;BME280;58104;52.744;15.242;2022-10-31T11:51:12;101361.33;;;23.30;43.61
70555;BME280;58104;52.744;15.242;2022-10-31T11:53:48;101361.92;;;23.43;43.91
70555;BME280;58104;52.744;15.242;2022-10-31T11:56:10;101360.99;;;23.35;43.91
70555;BME280;58104;52.744;15.242;2022-10-31T11:58:29;101363.09;;;23.37;44.64
70555;BME280;58104;52.744;15.242;2022-10-31T12:00:56;101367.85;;;23.36;43.61
70555;BME280;58104;52.744;15.242;2022-10-31T12:03:27;101369.80;;;23.73;43.40
70555;BME280;58104;52.744;15.242;2022-10-31T12:05:48;101367.02;;;23.68;43.20
70555;BME280;58104;52.744;15.242;2022-10-31T12:08:12;101371.11;;;23.79;42.61
70555;BME280;58104;52.744;15.242;2022-10-31T12:10:42;101372.24;;;23.93;43.81
70555;BME280;58104;52.744;15.242;2022-10-31T12:13:08;101366.65;;;23.74;43.46
70555;BME280;58104;52.744;15.242;2022-10-31T12:15:31;101357.64;;;23.91;42.97
70555;BME280;58104;52.744;15.242;2022-10-31T12:18:00;101357.70;;;23.94;43.05
70555;BME280;58104;52.744;15.242;2022-10-31T12:20:23;101354.87;;;24.14;42.84
70555;BME280;58104;52.744;15.242;2022-10-31T12:22:51;101351.90;;;24.20;42.76
70555;BME280;58104;52.744;15.242;2022-10-31T12:25:18;101349.58;;;23.90;43.17
70555;BME280;58104;52.744;15.242;2022-10-31T12:30:11;101345.81;;;23.80;43.87
70555;BME280;58104;52.744;15.242;2022-10-31T12:32:32;101347.50;;;23.86;43.91
70555;BME280;58104;52.744;15.242;2022-10-31T12:35:00;101349.26;;;23.91;43.93
70555;BME280;58104;52.744;15.242;2022-10-31T12:37:26;101347.54;;;23.87;43.60